KNQX/NQX METAR and TAF weather

Enter ICAO airport designator
Station Type Date Time Source
KNQX METAR 2019/06/16 20:53 UTC NOAA

KNQX 162053Z 07012KT 10SM FEW025 SCT090 BKN160 OVC250 29/23 A2998 RMK AO2 TSB1955E11 SLP151 T2 SET T02890228 56008


Station Type Date Time Source
KNQX Decoded METAR 2019/06/16 20:53 UTC NOAA

KEY WEST NAVAL AIR STATION, FL, United States (KNQX) 24-35N 81-41W 6M
Jun 16, 2019 - 04:53 PM EDT / 2019.06.16 2053 UTC
Wind: from the ENE (070 degrees) at 14 MPH (12 KT):0
Visibility: 10 mile(s):0
Sky conditions: overcast
Temperature: 84.0 F (28.9 C)
Dew Point: 73.0 F (22.8 C)
Relative Humidity: 69%
Pressure (altimeter): 29.98 in. Hg (1015 hPa)
Pressure tendency: 0.02 inches (0.8 hPa) lower than three hours ago
ob: KNQX 162053Z 07012KT 10SM FEW025 SCT090 BKN160 OVC250 29/23 A2998 RMK AO2 TSB1955E11 SLP151 T2 SET T02890228 56008
cycle: 21

Station Type Date Time Source
KNQX TAF 2019/06/16 20:59 UTC NOAA

TAF
AMD KNQX 1620/1715 12009KT 9999 VCSH SCT025CB SCT080 BKN150 QNH2990INS
TEMPO 1620/1623 07012G20KT 4800 TS SCT025CB SCT090 BKN150
FM162300 12012KT 9999 VCTS FEW020 SCT030CB BKN150 QNH2992INS
FM170600 09008KT 9999 VCSH SCT020 BKN150 QNH2990INS T33/1619Z T28/1709Z
AMD 1953 FN00204

Example: see airport list